createdAt,value
2018-12-16T00:00:53.230Z,25.40
2018-12-16T00:01:53.215Z,25.20
2018-12-16T00:02:53.250Z,25.20
2018-12-16T00:03:53.255Z,24.20
2018-12-16T00:04:53.185Z,25.50
2018-12-16T00:05:53.173Z,26.70
2018-12-16T00:06:53.163Z,25.20
2018-12-16T00:07:53.154Z,26.00
2018-12-16T00:08:53.146Z,26.90
2018-12-16T00:09:53.174Z,25.90
2018-12-16T00:10:53.120Z,26.30
2018-12-16T00:11:53.107Z,26.50
2018-12-16T00:12:53.097Z,25.90
2018-12-16T00:13:53.087Z,26.90
2018-12-16T00:14:53.076Z,25.50
2018-12-16T00:15:53.106Z,26.70
2018-12-16T00:16:53.054Z,30.80
2018-12-16T00:17:53.047Z,26.30
2018-12-16T00:18:53.035Z,27.40
2018-12-16T00:19:53.021Z,24.90
2018-12-16T00:20:53.050Z,26.60
2018-12-16T00:21:52.999Z,26.10
2018-12-16T00:22:52.991Z,26.00
2018-12-16T00:23:53.022Z,26.70
2018-12-16T00:24:53.007Z,24.90
2018-12-16T00:25:52.956Z,25.60
2018-12-16T00:26:52.946Z,24.90
2018-12-16T00:27:52.935Z,26.20
2018-12-16T00:28:52.978Z,25.20
2018-12-16T00:29:52.913Z,24.80
2018-12-16T00:30:52.902Z,24.90
2018-12-16T00:31:52.892Z,26.00
2018-12-16T00:32:52.884Z,25.70
2018-12-16T00:33:52.874Z,25.00
2018-12-16T00:34:52.897Z,25.40
2018-12-16T00:35:52.850Z,26.00
2018-12-16T00:36:52.841Z,25.80
2018-12-16T00:37:52.828Z,27.00
2018-12-16T00:38:52.815Z,25.60
2018-12-16T00:39:52.848Z,25.50
2018-12-16T00:40:52.794Z,25.50
2018-12-16T00:41:52.783Z,26.00
2018-12-16T00:42:52.775Z,24.80
2018-12-16T00:43:52.763Z,25.10
2018-12-16T00:44:52.751Z,26.60
2018-12-16T00:45:52.780Z,25.80
2018-12-16T00:46:52.735Z,26.00
2018-12-16T00:47:52.722Z,24.80
2018-12-16T00:48:52.713Z,25.20
2018-12-16T00:49:52.696Z,24.10
2018-12-16T00:50:52.726Z,24.70
2018-12-16T00:51:52.674Z,25.10
2018-12-16T00:52:52.665Z,23.90
2018-12-16T00:53:52.652Z,26.70
2018-12-16T00:54:52.642Z,24.50
2018-12-16T00:55:52.672Z,24.50
2018-12-16T00:56:52.620Z,25.20
2018-12-16T00:57:52.608Z,24.50
2018-12-16T00:58:52.602Z,24.10
2018-12-16T00:59:52.589Z,24.40
2018-12-16T01:00:52.581Z,24.10
2018-12-16T01:01:52.621Z,25.00
2018-12-16T01:02:52.557Z,25.10
2018-12-16T01:03:52.544Z,24.40
2018-12-16T01:04:52.535Z,24.00
2018-12-16T01:05:52.525Z,24.50
2018-12-16T01:06:52.512Z,25.00
2018-12-16T01:07:52.542Z,23.90
2018-12-16T01:08:52.492Z,24.60
2018-12-16T01:09:52.479Z,23.80
2018-12-16T01:10:52.470Z,21.40
2018-12-16T01:11:52.458Z,23.60
2018-12-16T01:12:52.449Z,23.90
2018-12-16T01:13:52.480Z,24.10
2018-12-16T01:14:52.426Z,22.10
2018-12-16T01:15:52.413Z,23.50
2018-12-16T01:16:52.403Z,23.30
2018-12-16T01:17:52.440Z,22.00
2018-12-16T01:18:52.385Z,22.30
2018-12-16T01:19:52.372Z,23.20
2018-12-16T01:20:52.362Z,23.70
2018-12-16T01:21:52.349Z,23.70
2018-12-16T01:22:52.342Z,23.80
2018-12-16T01:23:52.367Z,23.30
2018-12-16T01:24:52.319Z,22.60
2018-12-16T01:25:52.347Z,22.20
2018-12-16T01:26:52.294Z,23.10
2018-12-16T01:27:52.284Z,22.50
2018-12-16T01:28:52.275Z,24.10
2018-12-16T01:29:52.262Z,22.20
2018-12-16T01:30:52.251Z,24.00
2018-12-16T01:31:52.282Z,22.30
2018-12-16T01:32:52.233Z,22.80
2018-12-16T01:33:52.221Z,22.80
2018-12-16T01:34:52.213Z,22.30
2018-12-16T01:35:52.201Z,22.50
2018-12-16T01:36:52.186Z,23.40
2018-12-16T01:37:52.216Z,22.30
2018-12-16T01:38:52.167Z,22.70
2018-12-16T01:39:52.155Z,23.10
2018-12-16T01:40:52.160Z,22.30
2018-12-16T01:41:52.143Z,23.10
2018-12-16T01:42:52.122Z,22.30
2018-12-16T01:43:52.150Z,22.30
2018-12-16T01:44:52.100Z,23.20
2018-12-16T01:45:52.089Z,22.20
2018-12-16T01:46:52.077Z,23.00
2018-12-16T01:47:52.107Z,22.80
2018-12-16T01:48:52.056Z,22.70
2018-12-16T01:49:52.046Z,22.60
2018-12-16T01:50:52.035Z,23.30
2018-12-16T01:51:52.027Z,24.10
2018-12-16T01:52:52.053Z,23.10
2018-12-16T01:53:52.005Z,23.00
2018-12-16T01:54:51.992Z,23.60
2018-12-16T01:55:51.982Z,24.80
2018-12-16T01:56:52.011Z,24.20
2018-12-16T01:57:51.958Z,28.70
2018-12-16T01:58:51.951Z,25.10
2018-12-16T01:59:51.940Z,25.80
2018-12-16T02:00:51.927Z,27.10
2018-12-16T02:01:51.915Z,29.20
2018-12-16T02:02:51.946Z,27.40
2018-12-16T02:03:51.894Z,26.50
2018-12-16T02:04:51.884Z,26.90
2018-12-16T02:05:51.873Z,26.80
2018-12-16T02:06:51.866Z,26.50
2018-12-16T02:07:51.851Z,26.90
2018-12-16T02:08:51.880Z,30.00
2018-12-16T02:09:51.828Z,28.20
2018-12-16T02:10:51.818Z,33.30
2018-12-16T02:11:51.807Z,28.70
2018-12-16T02:12:51.795Z,29.70
2018-12-16T02:13:51.827Z,28.40
2018-12-16T02:14:51.774Z,30.60
2018-12-16T02:15:51.762Z,29.70
2018-12-16T02:16:51.754Z,30.20
2018-12-16T02:17:51.782Z,30.50
2018-12-16T02:18:51.733Z,30.00
2018-12-16T02:19:51.719Z,30.30
2018-12-16T02:20:51.709Z,28.70
2018-12-16T02:21:51.702Z,29.90
2018-12-16T02:22:56.882Z,30.70
2018-12-16T02:23:52.676Z,31.00
2018-12-16T02:24:51.665Z,31.40
2018-12-16T02:25:51.654Z,33.30
2018-12-16T02:26:51.643Z,31.80
2018-12-16T02:27:51.635Z,30.80
2018-12-16T02:28:51.663Z,31.10
2018-12-16T02:29:51.653Z,30.50
2018-12-16T02:30:51.603Z,31.90
2018-12-16T02:31:51.615Z,30.90
2018-12-16T02:32:51.582Z,30.60
2018-12-16T02:33:51.568Z,30.40
2018-12-16T02:34:51.557Z,31.30
2018-12-16T02:35:51.595Z,31.10
2018-12-16T02:36:51.537Z,31.20
2018-12-16T02:37:51.525Z,30.50
2018-12-16T02:38:51.515Z,30.90
2018-12-16T02:39:51.503Z,29.90
2018-12-16T02:40:51.532Z,29.20
2018-12-16T02:41:51.482Z,31.00
2018-12-16T02:42:51.470Z,31.10
2018-12-16T02:43:51.503Z,30.60
2018-12-16T02:44:51.491Z,32.10
2018-12-16T02:45:51.438Z,31.30
2018-12-16T02:46:51.428Z,29.60
2018-12-16T02:47:51.415Z,31.10
2018-12-16T02:48:51.423Z,30.30
2018-12-16T02:49:51.394Z,29.10
2018-12-16T02:50:51.424Z,30.60
2018-12-16T02:51:51.379Z,30.20
2018-12-16T02:52:51.363Z,30.90
2018-12-16T02:53:51.370Z,30.50
2018-12-16T02:54:51.614Z,32.70
2018-12-16T02:55:51.329Z,32.10
2018-12-16T02:56:51.323Z,31.50
2018-12-16T02:57:51.307Z,32.30
2018-12-16T02:58:51.297Z,32.20
2018-12-16T02:59:51.377Z,32.80
2018-12-16T03:00:51.315Z,32.70
2018-12-16T03:01:51.265Z,31.20
2018-12-16T03:02:51.256Z,33.30
2018-12-16T03:03:51.242Z,32.40
2018-12-16T03:04:51.263Z,34.10
2018-12-16T03:05:51.220Z,32.30
2018-12-16T03:06:51.210Z,32.40
2018-12-16T03:07:51.198Z,32.30
2018-12-16T03:08:51.192Z,33.40
2018-12-16T03:09:51.177Z,33.90
2018-12-16T03:10:51.202Z,31.80
2018-12-16T03:11:51.157Z,33.60
2018-12-16T03:12:51.155Z,32.80
2018-12-16T03:13:51.133Z,34.80
2018-12-16T03:14:51.132Z,33.60
2018-12-16T03:15:51.142Z,33.90
2018-12-16T03:16:51.102Z,34.10
2018-12-16T03:17:51.093Z,34.20
2018-12-16T03:18:51.080Z,35.40
2018-12-16T03:19:51.072Z,34.50
2018-12-16T03:20:51.090Z,35.90
2018-12-16T03:21:51.046Z,35.30
2018-12-16T03:22:51.038Z,36.50
2018-12-16T03:23:51.026Z,36.70
2018-12-16T03:24:51.014Z,37.30
2018-12-16T03:25:51.004Z,37.90
2018-12-16T03:26:51.025Z,38.30
2018-12-16T03:27:50.988Z,38.00
2018-12-16T03:28:50.970Z,37.70
2018-12-16T03:29:50.963Z,36.50
2018-12-16T03:30:50.950Z,36.20
2018-12-16T03:31:50.938Z,35.20
2018-12-16T03:32:50.976Z,37.10
2018-12-16T03:33:50.917Z,35.50
2018-12-16T03:34:50.906Z,36.90
2018-12-16T03:35:50.894Z,36.90
2018-12-16T03:36:50.888Z,35.40
2018-12-16T03:37:50.872Z,36.20
2018-12-16T03:38:50.891Z,36.00
2018-12-16T03:39:50.886Z,35.70
2018-12-16T03:40:50.839Z,36.10
2018-12-16T03:41:50.857Z,35.00
2018-12-16T03:42:50.819Z,33.70
2018-12-16T03:43:50.807Z,33.10
2018-12-16T03:44:50.800Z,34.30
2018-12-16T03:45:50.821Z,32.90
2018-12-16T03:46:50.777Z,32.90
2018-12-16T03:47:50.765Z,32.00
2018-12-16T03:48:50.758Z,32.00
2018-12-16T03:49:50.774Z,32.30
2018-12-16T03:50:50.763Z,32.00
2018-12-16T03:51:50.752Z,29.90
2018-12-16T03:52:50.710Z,32.20
2018-12-16T03:53:50.700Z,30.30
2018-12-16T03:54:50.687Z,30.10
2018-12-16T03:55:50.676Z,32.00
2018-12-16T03:56:50.710Z,30.30
2018-12-16T03:57:50.654Z,31.70
2018-12-16T03:58:50.643Z,30.10
2018-12-16T03:59:50.633Z,31.20
2018-12-16T04:00:50.633Z,30.10
2018-12-16T04:01:50.616Z,30.80
2018-12-16T04:02:50.643Z,31.10
2018-12-16T04:03:50.589Z,31.70
2018-12-16T04:04:50.584Z,30.00
2018-12-16T04:05:50.567Z,31.60
2018-12-16T04:06:50.558Z,30.40
2018-12-16T04:07:50.547Z,30.40
2018-12-16T04:08:50.564Z,29.40
2018-12-16T04:09:50.555Z,30.80
2018-12-16T04:10:50.513Z,31.40
2018-12-16T04:11:50.510Z,32.30
2018-12-16T04:12:50.497Z,29.80
2018-12-16T04:13:50.481Z,30.40
2018-12-16T04:14:50.508Z,30.80
2018-12-16T04:15:50.459Z,29.70
2018-12-16T04:16:50.447Z,30.80
2018-12-16T04:17:50.438Z,31.00
2018-12-16T04:18:50.428Z,31.00
2018-12-16T04:19:50.414Z,31.60
2018-12-16T04:20:50.434Z,31.80
2018-12-16T04:21:50.394Z,31.90
2018-12-16T04:22:50.382Z,32.30
2018-12-16T04:23:50.372Z,30.70
2018-12-16T04:24:50.361Z,30.60
2018-12-16T04:25:50.384Z,32.00
2018-12-16T04:26:50.341Z,30.80
2018-12-16T04:27:50.329Z,31.90
2018-12-16T04:28:50.317Z,32.00
2018-12-16T04:29:50.306Z,31.70
2018-12-16T04:30:50.298Z,30.80
2018-12-16T04:31:50.314Z,31.70
2018-12-16T04:32:50.278Z,31.70
2018-12-16T04:33:50.327Z,31.40
2018-12-16T04:34:50.252Z,31.70
2018-12-16T04:35:50.241Z,29.90
2018-12-16T04:36:50.259Z,32.60
2018-12-16T04:37:50.221Z,31.10
2018-12-16T04:38:50.240Z,31.50
2018-12-16T04:39:50.209Z,31.10
2018-12-16T04:40:50.188Z,30.60
2018-12-16T04:41:50.176Z,31.50
2018-12-16T04:42:50.164Z,29.70
2018-12-16T04:43:50.155Z,30.40
2018-12-16T04:44:50.177Z,29.90
2018-12-16T04:45:50.134Z,30.40
2018-12-16T04:46:50.125Z,29.40
2018-12-16T04:47:50.112Z,29.80
2018-12-16T04:48:50.101Z,31.10
2018-12-16T04:49:50.123Z,29.40
2018-12-16T04:50:50.086Z,29.50
2018-12-16T04:51:50.068Z,30.50
2018-12-16T04:52:50.091Z,30.40
2018-12-16T04:53:50.047Z,29.70
2018-12-16T04:54:50.054Z,30.70
2018-12-16T04:55:50.025Z,29.70
2018-12-16T04:56:50.016Z,29.60
2018-12-16T04:57:50.003Z,38.00
2018-12-16T04:58:50.026Z,31.50
2018-12-16T04:59:49.985Z,31.00
2018-12-16T05:00:49.971Z,30.40
2018-12-16T05:01:49.973Z,30.90
2018-12-16T05:02:49.948Z,31.70
2018-12-16T05:03:49.939Z,29.90
2018-12-16T05:04:49.961Z,30.90
2018-12-16T05:05:49.916Z,30.80
2018-12-16T05:06:49.906Z,30.40
2018-12-16T05:07:49.903Z,31.40
2018-12-16T05:08:49.891Z,28.80
2018-12-16T05:09:49.873Z,30.30
2018-12-16T05:10:49.898Z,30.10
2018-12-16T05:11:49.855Z,30.40
2018-12-16T05:12:49.840Z,29.00
2018-12-16T05:13:49.831Z,30.80
2018-12-16T05:14:49.820Z,31.00
2018-12-16T05:15:49.807Z,30.20
2018-12-16T05:16:49.829Z,31.50
2018-12-16T05:17:49.788Z,31.40
2018-12-16T05:18:49.777Z,31.50
2018-12-16T05:19:49.797Z,32.80
2018-12-16T05:20:49.754Z,31.80
2018-12-16T05:21:49.757Z,31.50
2018-12-16T05:22:49.763Z,31.30
2018-12-16T05:23:49.721Z,32.90
2018-12-16T05:24:49.744Z,31.30
2018-12-16T05:25:49.710Z,31.10
2018-12-16T05:26:49.692Z,31.40
2018-12-16T05:27:49.679Z,30.30
2018-12-16T05:28:49.667Z,30.30
2018-12-16T05:29:49.659Z,32.70
2018-12-16T05:30:49.678Z,31.40
2018-12-16T05:31:49.665Z,31.20
2018-12-16T05:32:49.626Z,31.10
2018-12-16T05:33:49.614Z,30.90
2018-12-16T05:34:49.603Z,30.30
2018-12-16T05:35:49.593Z,30.40
2018-12-16T05:36:49.583Z,30.60
2018-12-16T05:37:49.599Z,30.00
2018-12-16T05:38:49.787Z,29.70
2018-12-16T05:39:49.548Z,31.60
2018-12-16T05:40:49.566Z,28.70
2018-12-16T05:41:49.527Z,29.50
2018-12-16T05:42:49.517Z,29.90
2018-12-16T05:43:49.506Z,30.30
2018-12-16T05:44:49.523Z,31.40
2018-12-16T05:45:49.483Z,31.10
2018-12-16T05:46:49.499Z,32.60
2018-12-16T05:47:49.460Z,32.00
2018-12-16T05:48:49.456Z,29.90
2018-12-16T05:49:49.443Z,29.20
2018-12-16T05:50:49.427Z,30.20
2018-12-16T05:51:49.446Z,30.40
2018-12-16T05:52:49.406Z,29.00
2018-12-16T05:53:49.397Z,29.20
2018-12-16T05:54:49.384Z,30.90
2018-12-16T05:55:49.374Z,31.30
2018-12-16T05:56:49.393Z,29.90
2018-12-16T05:57:49.351Z,30.40
2018-12-16T05:58:49.344Z,30.40
2018-12-16T05:59:49.330Z,31.50
2018-12-16T06:00:49.318Z,33.00
2018-12-16T06:01:49.312Z,30.80
2018-12-16T06:02:49.339Z,30.90
2018-12-16T06:03:49.289Z,29.10
2018-12-16T06:04:49.311Z,31.20
2018-12-16T06:05:49.268Z,31.20
2018-12-16T06:06:49.256Z,32.40
2018-12-16T06:07:49.242Z,31.30
2018-12-16T06:08:49.231Z,32.20
2018-12-16T06:09:49.264Z,31.30
2018-12-16T06:10:49.220Z,31.10
2018-12-16T06:11:49.197Z,29.80
2018-12-16T06:12:49.191Z,31.60
2018-12-16T06:13:49.179Z,31.70
2018-12-16T06:14:49.173Z,30.90
2018-12-16T06:15:49.183Z,31.20
2018-12-16T06:16:49.144Z,31.20
2018-12-16T06:17:49.143Z,29.80
2018-12-16T06:18:49.121Z,30.10
2018-12-16T06:19:49.143Z,31.00
2018-12-16T06:20:49.100Z,31.80
2018-12-16T06:21:49.119Z,29.90
2018-12-16T06:22:49.083Z,31.10
2018-12-16T06:23:55.372Z,28.10
2018-12-16T06:24:50.086Z,28.50
2018-12-16T06:25:49.045Z,30.00
2018-12-16T06:26:49.035Z,29.00
2018-12-16T06:27:49.023Z,28.90
2018-12-16T06:28:49.018Z,26.40
2018-12-16T06:29:49.015Z,28.00
2018-12-16T06:30:49.021Z,29.40
2018-12-16T06:31:48.989Z,29.20
2018-12-16T06:32:48.969Z,29.10
2018-12-16T06:33:48.961Z,29.00
2018-12-16T06:34:48.948Z,28.00
2018-12-16T06:35:48.935Z,30.80
2018-12-16T06:36:48.955Z,30.40
2018-12-16T06:37:48.916Z,28.60
2018-12-16T06:38:48.912Z,29.20
2018-12-16T06:39:48.911Z,30.20
2018-12-16T06:40:48.883Z,28.70
2018-12-16T06:41:48.911Z,29.80
2018-12-16T06:42:48.859Z,29.30
2018-12-16T06:43:48.853Z,27.70
2018-12-16T06:44:48.839Z,29.30
2018-12-16T06:45:48.840Z,28.70
2018-12-16T06:46:48.815Z,29.10
2018-12-16T06:47:48.837Z,29.00
2018-12-16T06:48:48.793Z,29.00
2018-12-16T06:49:48.784Z,29.90
2018-12-16T06:50:48.775Z,30.10
2018-12-16T06:51:48.777Z,28.30
2018-12-16T06:52:48.752Z,30.10
2018-12-16T06:53:48.777Z,28.70
2018-12-16T06:54:48.729Z,28.10
2018-12-16T06:55:48.722Z,27.80
2018-12-16T06:56:48.706Z,27.70
2018-12-16T06:57:48.697Z,29.70
2018-12-16T06:58:48.686Z,28.60
2018-12-16T06:59:48.705Z,28.40
2018-12-16T07:00:48.674Z,30.50
2018-12-16T07:01:48.681Z,28.90
2018-12-16T07:02:48.677Z,31.90
2018-12-16T07:03:48.633Z,29.80
2018-12-16T07:04:48.657Z,29.50
2018-12-16T07:05:48.609Z,28.80
2018-12-16T07:06:48.599Z,30.10
2018-12-16T07:07:48.586Z,28.90
2018-12-16T07:08:48.579Z,30.40
2018-12-16T07:09:48.567Z,29.70
2018-12-16T07:10:48.661Z,29.30
2018-12-16T07:11:48.681Z,31.60
2018-12-16T07:12:48.578Z,29.50
2018-12-16T07:13:48.526Z,29.30
2018-12-16T07:14:48.549Z,30.30
2018-12-16T07:15:48.499Z,29.20
2018-12-16T07:16:48.487Z,29.10
2018-12-16T07:17:48.478Z,28.60
2018-12-16T07:18:48.499Z,29.40
2018-12-16T07:19:48.455Z,29.20
2018-12-16T07:20:48.456Z,29.80
2018-12-16T07:21:48.438Z,29.00
2018-12-16T07:22:48.426Z,29.10
2018-12-16T07:23:48.413Z,29.00
2018-12-16T07:24:48.472Z,29.80
2018-12-16T07:25:48.426Z,28.70
2018-12-16T07:26:48.377Z,28.60
2018-12-16T07:27:48.381Z,29.30
2018-12-16T07:28:48.369Z,29.60
2018-12-16T07:29:48.349Z,29.00
2018-12-16T07:30:48.373Z,28.70
2018-12-16T07:31:48.323Z,28.40
2018-12-16T07:32:48.322Z,28.00
2018-12-16T07:33:48.303Z,29.30
2018-12-16T07:34:48.292Z,28.50
2018-12-16T07:35:48.281Z,29.30
2018-12-16T07:36:48.338Z,28.90
2018-12-16T07:37:48.260Z,28.90
2018-12-16T07:38:48.248Z,28.40
2018-12-16T07:39:48.264Z,29.30
2018-12-16T07:40:48.270Z,29.50
2018-12-16T07:41:48.238Z,28.10
2018-12-16T07:42:48.251Z,29.10
2018-12-16T07:43:48.218Z,28.20
2018-12-16T07:44:48.185Z,27.70
2018-12-16T07:45:48.174Z,28.70
2018-12-16T07:46:48.184Z,29.40
2018-12-16T07:47:48.185Z,28.70
2018-12-16T07:48:48.172Z,28.90
2018-12-16T07:49:48.133Z,29.80
2018-12-16T07:50:48.126Z,29.20
2018-12-16T07:51:48.108Z,28.10
2018-12-16T07:52:48.096Z,29.50
2018-12-16T07:53:48.090Z,29.20
2018-12-16T07:54:48.104Z,29.50
2018-12-16T07:55:48.066Z,28.80
2018-12-16T07:56:48.054Z,28.90
2018-12-16T07:57:48.042Z,28.70
2018-12-16T07:58:48.032Z,27.90
2018-12-16T07:59:48.019Z,29.30
2018-12-16T08:00:48.036Z,29.40
2018-12-16T08:01:47.997Z,28.30
2018-12-16T08:02:47.985Z,27.40
2018-12-16T08:03:47.980Z,29.50
2018-12-16T08:04:47.965Z,27.60
2018-12-16T08:05:48.220Z,28.40
2018-12-16T08:06:47.946Z,29.20
2018-12-16T08:07:47.933Z,28.90
2018-12-16T08:08:47.921Z,28.30
2018-12-16T08:09:47.911Z,27.60
2018-12-16T08:10:47.899Z,28.80
2018-12-16T08:11:47.923Z,28.20
2018-12-16T08:12:47.883Z,28.50
2018-12-16T08:13:47.867Z,29.60
2018-12-16T08:14:47.854Z,27.90
2018-12-16T08:15:47.845Z,28.20
2018-12-16T08:16:47.832Z,28.70
2018-12-16T08:17:47.853Z,28.90
2018-12-16T08:18:47.809Z,28.70
2018-12-16T08:19:47.803Z,28.30
2018-12-16T08:20:47.789Z,27.80
2018-12-16T08:21:47.778Z,29.80
2018-12-16T08:22:47.807Z,29.50
2018-12-16T08:23:47.788Z,27.40
2018-12-16T08:24:47.747Z,28.80
2018-12-16T08:25:47.736Z,27.80
2018-12-16T08:26:47.761Z,28.40
2018-12-16T08:27:47.712Z,27.70
2018-12-16T08:28:47.703Z,27.90
2018-12-16T08:29:47.722Z,27.40
2018-12-16T08:30:47.680Z,28.30
2018-12-16T08:31:47.670Z,29.50
2018-12-16T08:32:47.666Z,28.70
2018-12-16T08:33:47.648Z,27.60
2018-12-16T08:34:47.667Z,29.10
2018-12-16T08:35:47.627Z,27.50
2018-12-16T08:36:47.615Z,27.10
2018-12-16T08:37:47.614Z,29.40
2018-12-16T08:38:47.639Z,28.90
2018-12-16T08:39:47.584Z,30.00
2018-12-16T08:40:47.574Z,29.60
2018-12-16T08:41:47.564Z,26.80
2018-12-16T08:42:47.552Z,29.20
2018-12-16T08:43:47.537Z,29.00
2018-12-16T08:44:47.567Z,28.30
2018-12-16T08:45:47.517Z,29.00
2018-12-16T08:46:47.517Z,29.60
2018-12-16T08:47:47.529Z,28.80
2018-12-16T08:48:47.556Z,28.90
2018-12-16T08:49:47.473Z,29.20
2018-12-16T08:50:47.502Z,29.60
2018-12-16T08:51:47.456Z,30.90
2018-12-16T08:52:47.439Z,29.30
2018-12-16T08:53:47.428Z,30.20
2018-12-16T08:54:47.424Z,29.30
2018-12-16T08:55:47.413Z,30.60
2018-12-16T08:56:47.438Z,30.60
2018-12-16T08:57:47.428Z,30.60
2018-12-16T08:58:47.431Z,32.20
2018-12-16T08:59:47.366Z,30.40
2018-12-16T09:00:47.353Z,31.00
2018-12-16T09:01:47.346Z,31.40
2018-12-16T09:02:47.330Z,31.70
2018-12-16T09:03:47.321Z,30.80
2018-12-16T09:04:47.344Z,30.40
2018-12-16T09:05:47.303Z,31.50
2018-12-16T09:06:47.287Z,30.40
2018-12-16T09:07:47.277Z,30.10
2018-12-16T09:08:47.268Z,32.10
2018-12-16T09:09:47.253Z,32.20
2018-12-16T09:10:47.279Z,32.70
2018-12-16T09:11:47.263Z,32.20
2018-12-16T09:12:47.224Z,32.70
2018-12-16T09:13:47.214Z,32.00
2018-12-16T09:14:47.233Z,32.80
2018-12-16T09:15:47.197Z,33.70
2018-12-16T09:16:47.193Z,32.00
2018-12-16T09:17:47.167Z,29.80
2018-12-16T09:18:47.162Z,32.90
2018-12-16T09:19:47.177Z,31.20
2018-12-16T09:20:47.168Z,30.20
2018-12-16T09:21:47.127Z,29.70
2018-12-16T09:22:47.119Z,29.30
2018-12-16T09:23:47.104Z,32.00
2018-12-16T09:24:47.095Z,31.00
2018-12-16T09:25:47.081Z,29.80
2018-12-16T09:26:47.099Z,29.40
2018-12-16T09:27:47.093Z,30.70
2018-12-16T09:28:47.048Z,30.60
2018-12-16T09:29:47.040Z,30.30
2018-12-16T09:30:47.287Z,31.40
2018-12-16T09:31:47.022Z,31.10
2018-12-16T09:32:47.005Z,30.90
2018-12-16T09:33:46.995Z,31.10
2018-12-16T09:34:46.982Z,28.80
2018-12-16T09:35:46.973Z,30.50
2018-12-16T09:36:47.005Z,30.30
2018-12-16T09:37:46.952Z,29.70
2018-12-16T09:38:46.941Z,29.70
2018-12-16T09:39:46.926Z,29.20
2018-12-16T09:40:46.965Z,29.90
2018-12-16T09:41:46.907Z,28.40
2018-12-16T09:42:46.949Z,29.00
2018-12-16T09:43:46.888Z,28.40
2018-12-16T09:44:46.880Z,28.40
2018-12-16T09:45:49.536Z,27.80
2018-12-16T09:46:46.855Z,28.40
2018-12-16T09:47:46.852Z,28.20
2018-12-16T09:48:46.889Z,27.80
2018-12-16T09:49:46.822Z,29.40
2018-12-16T09:50:46.819Z,28.80
2018-12-16T09:51:46.802Z,28.10
2018-12-16T09:52:46.792Z,27.80
2018-12-16T09:53:46.841Z,28.30
2018-12-16T09:54:46.770Z,27.60
2018-12-16T09:55:46.756Z,27.90
2018-12-16T09:56:46.743Z,26.60
2018-12-16T09:57:46.738Z,29.20
2018-12-16T09:58:46.729Z,28.50
2018-12-16T09:59:46.785Z,28.60
2018-12-16T10:00:46.701Z,28.00
2018-12-16T10:01:46.690Z,28.40
2018-12-16T10:02:46.685Z,29.00
2018-12-16T10:03:46.672Z,29.10
2018-12-16T10:04:46.661Z,28.70
2018-12-16T10:05:46.691Z,27.70
2018-12-16T10:06:46.635Z,28.50
2018-12-16T10:07:46.626Z,29.10
2018-12-16T10:08:46.615Z,28.20
2018-12-16T10:09:46.605Z,29.40
2018-12-16T10:10:46.591Z,28.90
2018-12-16T10:11:46.636Z,27.30
2018-12-16T10:12:46.572Z,27.30
2018-12-16T10:13:46.617Z,26.90
2018-12-16T10:14:46.556Z,27.50
2018-12-16T10:15:46.595Z,27.20
2018-12-16T10:16:46.528Z,26.60
2018-12-16T10:17:46.517Z,26.10
2018-12-16T10:18:46.508Z,27.60
2018-12-16T10:19:46.494Z,26.50
2018-12-16T10:20:46.483Z,27.30
2018-12-16T10:21:46.515Z,26.60
2018-12-16T10:22:46.463Z,26.70
2018-12-16T10:23:46.449Z,27.10
2018-12-16T10:24:51.190Z,27.10
2018-12-16T10:25:47.492Z,28.60
2018-12-16T10:26:46.419Z,27.50
2018-12-16T10:27:46.408Z,27.40
2018-12-16T10:28:46.454Z,26.90
2018-12-16T10:29:46.388Z,27.40
2018-12-16T10:30:46.376Z,27.40
2018-12-16T10:31:46.398Z,27.30
2018-12-16T10:32:46.354Z,28.50
2018-12-16T10:33:46.375Z,27.80
2018-12-16T10:34:46.331Z,26.30
2018-12-16T10:35:46.320Z,26.30
2018-12-16T10:36:46.310Z,26.60
2018-12-16T10:37:46.300Z,26.50
2018-12-16T10:38:46.345Z,28.40
2018-12-16T10:39:46.334Z,27.10
2018-12-16T10:40:46.267Z,26.80
2018-12-16T10:41:46.259Z,27.50
2018-12-16T10:42:46.250Z,27.20
2018-12-16T10:43:46.278Z,27.70
2018-12-16T10:44:46.228Z,26.90
2018-12-16T10:45:46.210Z,26.70
2018-12-16T10:46:46.203Z,27.00
2018-12-16T10:47:46.194Z,28.50
2018-12-16T10:48:46.204Z,26.50
2018-12-16T10:49:46.223Z,27.70
2018-12-16T10:50:46.157Z,27.80
2018-12-16T10:51:46.148Z,28.20
2018-12-16T10:52:46.135Z,28.70
2018-12-16T10:53:46.124Z,27.80
2018-12-16T10:54:46.114Z,28.30
2018-12-16T10:55:46.146Z,28.50
2018-12-16T10:56:46.093Z,27.80
2018-12-16T10:57:46.113Z,28.90
2018-12-16T10:58:46.072Z,29.40
2018-12-16T10:59:46.059Z,29.00
2018-12-16T11:00:46.052Z,28.10
2018-12-16T11:01:46.079Z,28.40
2018-12-16T11:02:46.029Z,28.50
2018-12-16T11:03:46.017Z,28.70
2018-12-16T11:04:46.004Z,28.00
2018-12-16T11:05:46.051Z,28.30
2018-12-16T11:06:45.984Z,28.80
2018-12-16T11:07:46.041Z,29.70
2018-12-16T11:08:45.969Z,28.00
2018-12-16T11:09:45.953Z,29.10
2018-12-16T11:10:45.993Z,28.40
2018-12-16T11:11:45.929Z,28.70
2018-12-16T11:12:45.975Z,28.60
2018-12-16T11:13:45.908Z,28.10
2018-12-16T11:14:45.913Z,28.90
2018-12-16T11:15:45.887Z,28.50
2018-12-16T11:16:45.875Z,27.40
2018-12-16T11:17:45.921Z,28.70
2018-12-16T11:18:45.856Z,28.10
2018-12-16T11:19:45.848Z,28.60
2018-12-16T11:20:45.835Z,29.70
2018-12-16T11:21:45.853Z,28.00
2018-12-16T11:22:45.812Z,28.80
2018-12-16T11:23:45.799Z,29.10
2018-12-16T11:24:46.083Z,28.70
2018-12-16T11:25:45.778Z,28.40
2018-12-16T11:26:45.767Z,28.10
2018-12-16T11:27:45.755Z,28.40
2018-12-16T11:28:45.762Z,29.30
2018-12-16T11:29:45.734Z,30.10
2018-12-16T11:30:45.784Z,28.60
2018-12-16T11:31:45.711Z,30.40
2018-12-16T11:32:45.701Z,29.40
2018-12-16T11:33:45.694Z,30.30
2018-12-16T11:34:45.736Z,30.70
2018-12-16T11:35:45.668Z,28.60
2018-12-16T11:36:45.664Z,29.50
2018-12-16T11:37:45.647Z,30.00
2018-12-16T11:38:45.641Z,29.60
2018-12-16T11:39:45.688Z,30.40
2018-12-16T11:40:45.616Z,29.10
2018-12-16T11:41:45.605Z,30.90
2018-12-16T11:42:45.594Z,30.80
2018-12-16T11:43:45.583Z,30.70
2018-12-16T11:44:45.575Z,28.40
2018-12-16T11:45:45.615Z,29.30
2018-12-16T11:46:45.608Z,27.50
2018-12-16T11:47:45.539Z,29.30
2018-12-16T11:48:45.529Z,28.60
2018-12-16T11:49:45.516Z,29.10
2018-12-16T11:50:45.560Z,28.70
2018-12-16T11:51:45.496Z,28.70
2018-12-16T11:52:45.485Z,29.80
2018-12-16T11:53:45.470Z,28.50
2018-12-16T11:54:45.463Z,29.30
2018-12-16T11:55:45.505Z,30.40
2018-12-16T11:56:45.440Z,29.40
2018-12-16T11:57:45.441Z,30.60
2018-12-16T11:58:45.423Z,29.80
2018-12-16T11:59:45.465Z,30.20
2018-12-16T12:00:45.396Z,29.50
2018-12-16T12:01:45.390Z,29.30
2018-12-16T12:02:45.374Z,29.20
2018-12-16T12:03:45.366Z,30.30
2018-12-16T12:04:45.360Z,30.70
2018-12-16T12:05:45.396Z,31.30
2018-12-16T12:06:45.333Z,31.20
2018-12-16T12:07:45.319Z,29.60
2018-12-16T12:08:45.323Z,30.00
2018-12-16T12:09:45.301Z,30.40
2018-12-16T12:10:45.293Z,31.00
2018-12-16T12:11:45.344Z,30.50
2018-12-16T12:12:45.265Z,29.30
2018-12-16T12:13:45.274Z,29.80
2018-12-16T12:14:45.244Z,28.60
2018-12-16T12:15:45.243Z,30.20
2018-12-16T12:16:45.221Z,30.10
2018-12-16T12:17:45.270Z,30.00
2018-12-16T12:18:45.368Z,29.70
2018-12-16T12:19:45.189Z,29.70
2018-12-16T12:20:45.180Z,30.60
2018-12-16T12:21:45.169Z,30.80
2018-12-16T12:22:45.159Z,30.00
2018-12-16T12:23:45.149Z,30.30
2018-12-16T12:24:45.192Z,30.40
2018-12-16T12:25:45.123Z,29.70
2018-12-16T12:26:45.189Z,30.70
2018-12-16T12:27:45.103Z,30.50
2018-12-16T12:28:45.091Z,29.70
2018-12-16T12:29:45.300Z,30.50
2018-12-16T12:30:45.068Z,31.90
2018-12-16T12:31:45.065Z,31.00
2018-12-16T12:32:49.067Z,30.50
2018-12-16T12:33:45.059Z,31.40
2018-12-16T12:34:45.035Z,30.00
2018-12-16T12:35:45.077Z,30.10
2018-12-16T12:36:45.006Z,29.80
2018-12-16T12:37:44.995Z,29.70
2018-12-16T12:38:44.983Z,29.20
2018-12-16T12:39:44.972Z,28.70
2018-12-16T12:40:44.966Z,31.60
2018-12-16T12:41:45.009Z,29.30
2018-12-16T12:42:44.940Z,31.70
2018-12-16T12:43:44.933Z,31.40
2018-12-16T12:44:44.917Z,30.00
2018-12-16T12:45:44.906Z,31.00
2018-12-16T12:46:44.898Z,28.90
2018-12-16T12:47:44.942Z,31.00
2018-12-16T12:48:45.118Z,30.00
2018-12-16T12:49:45.344Z,31.10
2018-12-16T12:50:44.858Z,31.20
2018-12-16T12:51:44.845Z,31.50
2018-12-16T12:52:44.831Z,30.90